Time;durP1;ratioP1;P1;durP2;ratioP2;P2;SDS_P1;SDS_P2;PMS_P1;PMS_P2;Temp;Humidity;BMP_temperature;BMP_pressure;BME280_temperature;BME280_humidity;BME280_pressure;Samples;Min_cycle;Max_cycle;Signal;HPM_P1;HPM_P2
2022/05/22 00:01:31;;;;;;;0.00;0.00;;;;;;;;;;5037201;28;92747;-75
2022/05/22 00:03:58;;;;;;;0.00;0.00;;;;;;;;;;5040521;28;94656;-75
2022/05/22 00:06:24;;;;;;;0.00;0.00;;;;;;;;;;5036205;28;94860;-76
2022/05/22 00:08:51;;;;;;;0.00;0.00;;;;;;;;;;5037642;28;93859;-75
2022/05/22 00:11:17;;;;;;;0.30;0.30;;;;;;;;;;5037623;28;92297;-75
2022/05/22 00:13:43;;;;;;;0.00;0.00;;;;;;;;;;5037648;28;93306;-75
2022/05/22 00:18:55;;;;;;;0.00;0.00;;;;;;;;;;5037336;28;92273;-75
2022/05/22 00:21:21;;;;;;;0.47;0.47;;;;;;;;;;5037496;28;93935;-75
2022/05/22 00:23:48;;;;;;;0.00;0.00;;;;;;;;;;5037816;28;92919;-75
2022/05/22 00:26:14;;;;;;;0.00;0.00;;;;;;;;;;5040408;28;92185;-75
2022/05/22 00:28:40;;;;;;;0.85;0.85;;;;;;;;;;5036762;28;93653;-76
2022/05/22 00:31:07;;;;;;;0.00;0.00;;;;;;;;;;5017544;28;94790;-75
2022/05/22 00:33:33;;;;;;;0.15;0.15;;;;;;;;;;5037493;28;95332;-75
2022/05/22 00:36:00;;;;;;;0.00;0.00;;;;;;;;;;5019204;28;94042;-76
2022/05/22 00:38:26;;;;;;;0.20;0.20;;;;;;;;;;5019640;28;92218;-75
2022/05/22 00:40:53;;;;;;;0.00;0.00;;;;;;;;;;5037210;28;93077;-75
2022/05/22 00:43:23;;;;;;;0.00;0.00;;;;;;;;;;5018552;28;94455;-75
2022/05/22 00:45:50;;;;;;;0.45;0.45;;;;;;;;;;5022284;28;92374;-75
2022/05/22 00:48:16;;;;;;;0.00;0.00;;;;;;;;;;5019481;28;94184;-74
2022/05/22 00:50:43;;;;;;;0.00;0.00;;;;;;;;;;5037128;28;92179;-74
2022/05/22 00:53:10;;;;;;;0.08;0.08;;;;;;;;;;5037185;28;93263;-74
2022/05/22 00:55:36;;;;;;;0.00;0.00;;;;;;;;;;5017142;28;98628;-75
2022/05/22 00:58:09;;;;;;;0.00;0.00;;;;;;;;;;5036586;28;92760;-75
2022/05/22 01:00:37;;;;;;;0.00;0.00;;;;;;;;;;5018988;28;94801;-75
2022/05/22 01:03:27;;;;;;;0.00;0.00;;;;;;;;;;5018425;28;95884;-75
2022/05/22 01:06:02;;;;;;;0.10;0.10;;;;;;;;;;5019510;28;92365;-75
2022/05/22 01:08:28;;;;;;;0.10;0.10;;;;;;;;;;5025081;28;95878;-75
2022/05/22 01:10:59;;;;;;;0.00;0.00;;;;;;;;;;5022284;28;92332;-75
2022/05/22 01:13:29;;;;;;;0.20;0.20;;;;;;;;;;5040959;28;93077;-75
2022/05/22 01:15:56;;;;;;;0.00;0.00;;;;;;;;;;5022176;28;93978;-75
2022/05/22 01:18:22;;;;;;;0.00;0.00;;;;;;;;;;5022055;28;92373;-75
2022/05/22 01:20:50;;;;;;;0.00;0.00;;;;;;;;;;5028349;27;94989;-75
2022/05/22 01:23:19;;;;;;;0.00;0.00;;;;;;;;;;5060306;27;93397;-75
2022/05/22 01:25:46;;;;;;;0.00;0.00;;;;;;;;;;5060775;27;92409;-75
2022/05/22 01:28:15;;;;;;;0.10;0.10;;;;;;;;;;5045529;27;95279;-76
2022/05/22 01:30:41;;;;;;;0.00;0.00;;;;;;;;;;5046159;27;94171;-75
2022/05/22 01:33:09;;;;;;;0.00;0.00;;;;;;;;;;5042365;27;94750;-75
2022/05/22 01:35:37;;;;;;;0.00;0.00;;;;;;;;;;5041735;27;95940;-74
2022/05/22 01:38:06;;;;;;;0.00;0.00;;;;;;;;;;5060827;27;93720;-75
2022/05/22 01:40:38;;;;;;;0.00;0.00;;;;;;;;;;5042308;27;94685;-76
2022/05/22 01:43:04;;;;;;;0.00;0.00;;;;;;;;;;5041690;27;96032;-74
2022/05/22 01:45:33;;;;;;;0.00;0.00;;;;;;;;;;5040395;27;94781;-74
2022/05/22 01:48:01;;;;;;;0.00;0.00;;;;;;;;;;5041508;27;97656;-75
2022/05/22 01:50:34;;;;;;;0.00;0.00;;;;;;;;;;5041676;27;96023;-75
2022/05/22 01:53:00;;;;;;;0.00;0.00;;;;;;;;;;5045049;27;92406;-75
2022/05/22 01:55:27;;;;;;;0.00;0.00;;;;;;;;;;5041845;27;96103;-74
2022/05/22 01:57:56;;;;;;;0.00;0.00;;;;;;;;;;5039441;27;92337;-75
2022/05/22 02:00:26;;;;;;;0.00;0.00;;;;;;;;;;5041834;27;94999;-75
2022/05/22 02:02:56;;;;;;;0.00;0.00;;;;;;;;;;5041623;27;94927;-75
2022/05/22 02:05:31;;;;;;;0.00;0.00;;;;;;;;;;5041869;27;92367;-74
2022/05/22 02:10:44;;;;;;;0.00;0.00;;;;;;;;;;5039715;27;98016;-75
2022/05/22 02:13:10;;;;;;;0.00;0.00;;;;;;;;;;5041286;27;92371;-74
2022/05/22 02:15:37;;;;;;;0.00;0.00;;;;;;;;;;5044593;27;96235;-74
2022/05/22 02:18:03;;;;;;;0.00;0.00;;;;;;;;;;5041427;27;92403;-75
2022/05/22 02:20:29;;;;;;;0.00;0.00;;;;;;;;;;5059602;27;93468;-75
2022/05/22 02:22:57;;;;;;;0.00;0.00;;;;;;;;;;5041290;27;97079;-75
2022/05/22 02:25:25;;;;;;;0.00;0.00;;;;;;;;;;5041253;27;92391;-75
2022/05/22 02:28:00;;;;;;;0.00;0.00;;;;;;;;;;5041889;27;94518;-74
2022/05/22 02:30:30;;;;;;;0.00;0.00;;;;;;;;;;5040999;27;95797;-74
2022/05/22 02:32:57;;;;;;;0.00;0.00;;;;;;;;;;5041418;27;92284;-75
2022/05/22 02:35:23;;;;;;;0.00;0.00;;;;;;;;;;5039742;27;95383;-75
2022/05/22 02:38:01;;;;;;;0.00;0.00;;;;;;;;;;5043918;27;94938;-75
2022/05/22 02:40:42;;;;;;;0.00;0.00;;;;;;;;;;5026883;27;94223;-75
2022/05/22 02:43:09;;;;;;;0.00;0.00;;;;;;;;;;5040789;27;95725;-74
2022/05/22 02:45:37;;;;;;;0.00;0.00;;;;;;;;;;5059532;27;92423;-75
2022/05/22 02:48:09;;;;;;;0.15;0.15;;;;;;;;;;5041221;27;94101;-75
2022/05/22 02:50:37;;;;;;;0.32;0.32;;;;;;;;;;5040341;27;95858;-75
2022/05/22 02:53:10;;;;;;;0.00;0.00;;;;;;;;;;5041869;27;91583;-75
2022/05/22 02:55:56;;;;;;;0.00;0.00;;;;;;;;;;5057731;27;92310;-74
2022/05/22 02:58:36;;;;;;;0.00;0.00;;;;;;;;;;5043798;27;96736;-74
2022/05/22 03:01:03;;;;;;;0.00;0.00;;;;;;;;;;5039227;27;95809;-75
2022/05/22 03:03:30;;;;;;;0.00;0.00;;;;;;;;;;5058667;27;93982;-74
2022/05/22 03:08:42;;;;;;;0.00;0.00;;;;;;;;;;5040671;27;96047;-75
2022/05/22 03:11:09;;;;;;;0.00;0.00;;;;;;;;;;5023815;27;95547;-75
2022/05/22 03:13:35;;;;;;;0.00;0.00;;;;;;;;;;5040282;27;92420;-75
2022/05/22 03:16:02;;;;;;;0.00;0.00;;;;;;;;;;5040765;27;95494;-75
2022/05/22 03:18:42;;;;;;;0.00;0.00;;;;;;;;;;5041050;27;94869;-75
2022/05/22 03:21:18;;;;;;;1.75;1.65;;;;;;;;;;5043596;27;92380;-75
2022/05/22 03:23:47;;;;;;;0.00;0.00;;;;;;;;;;5040251;27;96097;-75
2022/05/22 03:26:13;;;;;;;0.00;0.00;;;;;;;;;;5038718;27;94797;-74
2022/05/22 03:28:40;;;;;;;0.00;0.00;;;;;;;;;;5039468;27;98624;-75
2022/05/22 03:31:06;;;;;;;0.00;0.00;;;;;;;;;;5040035;27;94961;-75
2022/05/22 03:33:33;;;;;;;0.00;0.00;;;;;;;;;;5040216;27;92317;-74
2022/05/22 03:36:00;;;;;;;0.00;0.00;;;;;;;;;;5040590;27;95392;-75
2022/05/22 03:38:26;;;;;;;0.00;0.00;;;;;;;;;;5039983;27;95677;-75
2022/05/22 03:41:01;;;;;;;0.00;0.00;;;;;;;;;;5040282;27;92323;-74
2022/05/22 03:43:32;;;;;;;0.00;0.00;;;;;;;;;;5041308;27;96115;-74
2022/05/22 03:45:59;;;;;;;0.00;0.00;;;;;;;;;;5023144;27;92697;-75
2022/05/22 03:48:27;;;;;;;0.00;0.00;;;;;;;;;;5039968;27;95707;-74
2022/05/22 03:50:53;;;;;;;0.00;0.00;;;;;;;;;;5038112;27;98082;-75
2022/05/22 03:53:23;;;;;;;0.00;0.00;;;;;;;;;;5040033;27;92559;-74
2022/05/22 03:55:50;;;;;;;0.00;0.00;;;;;;;;;;5040075;27;94851;-75
2022/05/22 03:58:21;;;;;;;0.00;0.00;;;;;;;;;;5037320;27;95735;-75
2022/05/22 04:00:49;;;;;;;0.00;0.00;;;;;;;;;;5038909;27;92431;-75
2022/05/22 04:03:15;;;;;;;0.00;0.00;;;;;;;;;;5055435;27;93343;-75
2022/05/22 04:05:43;;;;;;;0.00;0.00;;;;;;;;;;5042301;27;95408;-75
2022/05/22 04:08:09;;;;;;;0.00;0.00;;;;;;;;;;5040247;27;95143;-75
2022/05/22 04:10:54;;;;;;;0.00;0.00;;;;;;;;;;5039586;27;96034;-75
2022/05/22 04:13:21;;;;;;;0.00;0.00;;;;;;;;;;5039806;27;92411;-75
2022/05/22 04:15:52;;;;;;;0.00;0.00;;;;;;;;;;5038313;27;95874;-74
2022/05/22 04:18:18;;;;;;;1.90;1.20;;;;;;;;;;5057123;27;93519;-75
2022/05/22 04:20:45;;;;;;;0.00;0.00;;;;;;;;;;5039590;27;92373;-74
2022/05/22 04:26:16;;;;;;;0.00;0.00;;;;;;;;;;5039661;27;95296;-75
2022/05/22 04:28:43;;;;;;;0.00;0.00;;;;;;;;;;5042109;27;92493;-74
2022/05/22 04:31:19;;;;;;;0.00;0.00;;;;;;;;;;5039326;27;95910;-74
2022/05/22 04:34:24;;;;;;;0.00;0.00;;;;;;;;;;4956010;28;91857;-74
2022/05/22 04:37:03;;;;;;;0.00;0.00;;;;;;;;;;4938864;28;95082;-75
2022/05/22 04:39:35;;;;;;;0.00;0.00;;;;;;;;;;5015638;27;93371;-74
2022/05/22 04:42:08;;;;;;;0.00;0.00;;;;;;;;;;5036859;27;94755;-75
2022/05/22 04:44:35;;;;;;;0.00;0.00;;;;;;;;;;5036364;27;98154;-74
2022/05/22 04:47:37;;;;;;;0.00;0.00;;;;;;;;;;5037162;27;93160;-75
2022/05/22 04:50:14;;;;;;;0.00;0.00;;;;;;;;;;5055757;27;92342;-74
2022/05/22 04:53:03;;;;;;;0.00;0.00;;;;;;;;;;5021203;27;92551;-75
2022/05/22 04:55:54;;;;;;;0.00;0.00;;;;;;;;;;5039251;27;92960;-74
2022/05/22 04:58:21;;;;;;;0.00;0.00;;;;;;;;;;5039238;27;95687;-75
2022/05/22 05:00:48;;;;;;;0.00;0.00;;;;;;;;;;5039411;27;95576;-74
2022/05/22 05:03:16;;;;;;;0.00;0.00;;;;;;;;;;5038568;27;92379;-75
2022/05/22 05:05:51;;;;;;;0.00;0.00;;;;;;;;;;5022846;27;94776;-76
2022/05/22 05:08:18;;;;;;;0.00;0.00;;;;;;;;;;5037088;27;98110;-75
2022/05/22 05:10:52;;;;;;;0.00;0.00;;;;;;;;;;5039118;27;93143;-75
2022/05/22 05:13:21;;;;;;;0.10;0.10;;;;;;;;;;5042006;27;95797;-75
2022/05/22 05:15:58;;;;;;;0.00;0.00;;;;;;;;;;5039101;27;92422;-75
2022/05/22 05:18:29;;;;;;;0.10;0.10;;;;;;;;;;5038455;27;95181;-75
2022/05/22 05:21:06;;;;;;;0.00;0.00;;;;;;;;;;5038742;27;95910;-74
2022/05/22 05:23:33;;;;;;;0.17;0.17;;;;;;;;;;5038965;27;92536;-74
2022/05/22 05:26:07;;;;;;;0.00;0.00;;;;;;;;;;5039206;27;95956;-75
2022/05/22 05:28:34;;;;;;;0.00;0.00;;;;;;;;;;5038578;27;95429;-75
2022/05/22 05:31:02;;;;;;;0.00;0.00;;;;;;;;;;5038379;27;92321;-75
2022/05/22 05:33:30;;;;;;;0.10;0.10;;;;;;;;;;5037172;27;95872;-75
2022/05/22 05:36:19;;;;;;;0.10;0.10;;;;;;;;;;5059521;27;94384;-75
2022/05/22 05:39:07;;;;;;;0.00;0.00;;;;;;;;;;5055942;27;93960;-75
2022/05/22 05:41:47;;;;;;;0.00;0.00;;;;;;;;;;5038367;27;94740;-74
2022/05/22 05:44:17;;;;;;;1.08;0.45;;;;;;;;;;5038525;27;93360;-74
2022/05/22 05:46:54;;;;;;;0.20;0.20;;;;;;;;;;5038535;27;95228;-75
2022/05/22 05:49:25;;;;;;;0.00;0.00;;;;;;;;;;5056245;27;94412;-74
2022/05/22 05:52:11;;;;;;;0.10;0.10;;;;;;;;;;5057633;27;91659;-75
2022/05/22 05:55:00;;;;;;;0.20;0.20;;;;;;;;;;5041720;27;95003;-74
2022/05/22 05:58:05;;;;;;;0.10;0.10;;;;;;;;;;5058961;27;94620;-75
2022/05/22 06:00:58;;;;;;;0.10;0.10;;;;;;;;;;5043451;27;94774;-75
2022/05/22 06:03:28;;;;;;;0.10;0.10;;;;;;;;;;5041042;27;95558;-76
2022/05/22 06:05:55;;;;;;;0.57;0.40;;;;;;;;;;5041628;27;92409;-74
2022/05/22 06:08:31;;;;;;;0.10;0.10;;;;;;;;;;5041012;27;94551;-75
2022/05/22 06:11:17;;;;;;;0.05;0.05;;;;;;;;;;5059328;27;95721;-75
2022/05/22 06:13:44;;;;;;;0.10;0.10;;;;;;;;;;5041553;27;92458;-75
2022/05/22 06:16:11;;;;;;;0.10;0.10;;;;;;;;;;5041508;27;95408;-75
2022/05/22 06:19:00;;;;;;;0.10;0.10;;;;;;;;;;5041354;27;95258;-75
2022/05/22 06:21:26;;;;;;;0.20;0.20;;;;;;;;;;5059743;27;92260;-77
2022/05/22 06:23:54;;;;;;;0.15;0.15;;;;;;;;;;5044247;27;95195;-76
2022/05/22 06:26:47;;;;;;;0.10;0.10;;;;;;;;;;5039711;27;94669;-76
2022/05/22 06:29:31;;;;;;;0.20;0.20;;;;;;;;;;5059152;27;94677;-77
2022/05/22 06:32:28;;;;;;;0.00;0.00;;;;;;;;;;5040860;27;95359;-77
2022/05/22 06:35:01;;;;;;;0.10;0.10;;;;;;;;;;5059410;27;92143;-76
2022/05/22 06:38:03;;;;;;;;;;;;;;;;;;4957744;28;92617;-77
2022/05/22 06:41:06;;;;;;;0.15;0.15;;;;;;;;;;5041218;27;95269;-77
2022/05/22 06:43:51;;;;;;;0.10;0.10;;;;;;;;;;5058958;27;92317;-75
2022/05/22 06:46:33;;;;;;;1.13;1.10;;;;;;;;;;5041598;27;95794;-76
2022/05/22 06:49:18;;;;;;;0.10;0.10;;;;;;;;;;5045517;27;92600;-73
2022/05/22 06:52:23;;;;;;;0.10;0.10;;;;;;;;;;5016039;28;92520;-73
2022/05/22 06:55:10;;;;;;;0.40;0.30;;;;;;;;;;5013933;28;96754;-82
2022/05/22 06:57:47;;;;;;;0.10;0.10;;;;;;;;;;5045229;27;92393;-76
2022/05/22 07:00:30;;;;;;;0.17;0.17;;;;;;;;;;5040797;27;94833;-76
2022/05/22 07:03:29;;;;;;;0.10;0.10;;;;;;;;;;5039307;27;96656;-76
2022/05/22 07:06:14;;;;;;;0.10;0.10;;;;;;;;;;5026676;27;92496;-76
2022/05/22 07:09:02;;;;;;;1.08;0.32;;;;;;;;;;5040139;27;96177;-73
2022/05/22 07:11:49;;;;;;;0.10;0.10;;;;;;;;;;5056603;27;92531;-74
2022/05/22 07:14:32;;;;;;;0.10;0.10;;;;;;;;;;5025898;28;91910;-73
2022/05/22 07:17:15;;;;;;;0.10;0.10;;;;;;;;;;5020045;28;96008;-73
2022/05/22 07:19:55;;;;;;;0.00;0.00;;;;;;;;;;5020237;28;92352;-74
2022/05/22 07:22:41;;;;;;;0.10;0.10;;;;;;;;;;5036357;28;94788;-74
2022/05/22 07:25:23;;;;;;;4.50;0.65;;;;;;;;;;5036441;28;92315;-74
2022/05/22 07:28:02;;;;;;;0.32;0.32;;;;;;;;;;5038259;28;92250;-74
2022/05/22 07:30:43;;;;;;;0.17;0.17;;;;;;;;;;5038185;28;93170;-73
2022/05/22 07:33:27;;;;;;;0.10;0.10;;;;;;;;;;5038030;27;92507;-73
2022/05/22 07:35:59;;;;;;;0.08;0.08;;;;;;;;;;5037262;27;92453;-74
2022/05/22 07:38:45;;;;;;;0.20;0.20;;;;;;;;;;5057522;27;92536;-74
2022/05/22 07:41:36;;;;;;;0.03;0.03;;;;;;;;;;5040682;27;91613;-74
2022/05/22 07:44:07;;;;;;;0.10;0.10;;;;;;;;;;5040047;27;94346;-74
2022/05/22 07:46:57;;;;;;;0.57;0.57;;;;;;;;;;5057904;27;94074;-74
2022/05/22 07:52:54;;;;;;;0.20;0.20;;;;;;;;;;5039553;27;97394;-73
2022/05/22 07:55:40;;;;;;;0.10;0.10;;;;;;;;;;5056754;27;94332;-74
2022/05/22 07:58:36;;;;;;;0.10;0.10;;;;;;;;;;5044690;27;92501;-74
2022/05/22 08:01:25;;;;;;;0.00;0.00;;;;;;;;;;5059512;27;94228;-74
2022/05/22 08:04:14;;;;;;;0.20;0.20;;;;;;;;;;5054769;27;92299;-74
2022/05/22 08:07:08;;;;;;;0.75;0.75;;;;;;;;;;5025898;27;92524;-74
2022/05/22 08:09:51;;;;;;;0.10;0.10;;;;;;;;;;5039943;27;95515;-73
2022/05/22 08:12:18;;;;;;;0.20;0.20;;;;;;;;;;5039474;27;92375;-74
2022/05/22 08:14:45;;;;;;;0.25;0.25;;;;;;;;;;5038857;27;96037;-74
2022/05/22 08:17:12;;;;;;;0.00;0.00;;;;;;;;;;5037603;27;96810;-74
2022/05/22 08:19:38;;;;;;;0.10;0.10;;;;;;;;;;5022681;27;92361;-74
2022/05/22 08:22:12;;;;;;;0.10;0.10;;;;;;;;;;5039549;27;95504;-78
2022/05/22 08:24:56;;;;;;;0.05;0.05;;;;;;;;;;5060237;27;92559;-75
2022/05/22 08:27:27;;;;;;;0.10;0.10;;;;;;;;;;5039077;27;95348;-76
2022/05/22 08:29:54;;;;;;;0.10;0.10;;;;;;;;;;5039343;27;97247;-76
2022/05/22 08:32:23;;;;;;;0.28;0.28;;;;;;;;;;5039196;27;94204;-74
2022/05/22 08:34:51;;;;;;;0.10;0.10;;;;;;;;;;5058090;27;93561;-70
2022/05/22 08:37:17;;;;;;;0.10;0.10;;;;;;;;;;5057146;27;94618;-71
2022/05/22 08:39:44;;;;;;;0.10;0.10;;;;;;;;;;5057145;27;92323;-76
2022/05/22 08:42:15;;;;;;;1.00;0.40;;;;;;;;;;5056086;27;94764;-76
2022/05/22 08:44:42;;;;;;;0.10;0.10;;;;;;;;;;5057349;27;94015;-75
2022/05/22 08:47:21;;;;;;;0.10;0.10;;;;;;;;;;5060491;27;92354;-75
2022/05/22 08:49:48;;;;;;;0.43;0.43;;;;;;;;;;5057147;27;93570;-76
2022/05/22 08:52:19;;;;;;;5.80;0.22;;;;;;;;;;5057052;27;92347;-76
2022/05/22 08:54:58;;;;;;;0.40;0.40;;;;;;;;;;5057270;27;93253;-76
2022/05/22 09:00:35;;;;;;;0.10;0.10;;;;;;;;;;5057294;27;91669;-76
2022/05/22 09:03:04;;;;;;;0.20;0.20;;;;;;;;;;5053844;27;92744;-76
2022/05/22 09:05:34;;;;;;;1.80;0.57;;;;;;;;;;5057210;27;92936;-76
2022/05/22 09:08:07;;;;;;;0.10;0.10;;;;;;;;;;5055543;27;94561;-75
2022/05/22 09:10:48;;;;;;;0.15;0.15;;;;;;;;;;5059953;27;95830;-76
2022/05/22 09:13:32;;;;;;;0.22;0.22;;;;;;;;;;5038970;27;92381;-75
2022/05/22 09:16:25;;;;;;;0.20;0.20;;;;;;;;;;5056900;27;94005;-75
2022/05/22 09:18:58;;;;;;;0.20;0.20;;;;;;;;;;5056763;27;94542;-75
2022/05/22 09:21:32;;;;;;;0.20;0.20;;;;;;;;;;5037913;27;92806;-71
2022/05/22 09:24:05;;;;;;;0.10;0.10;;;;;;;;;;5056617;27;93413;-79
2022/05/22 09:26:32;;;;;;;0.10;0.10;;;;;;;;;;5039538;27;93225;-78
2022/05/22 09:28:58;;;;;;;0.10;0.10;;;;;;;;;;5060437;27;92313;-75
2022/05/22 09:31:37;;;;;;;0.10;0.10;;;;;;;;;;5063322;27;93447;-77
2022/05/22 09:34:17;;;;;;;0.10;0.10;;;;;;;;;;5058302;27;94686;-78
2022/05/22 09:36:56;;;;;;;0.10;0.10;;;;;;;;;;5042101;27;96419;-77
2022/05/22 09:39:46;;;;;;;0.30;0.30;;;;;;;;;;5060269;27;93077;-77
2022/05/22 09:42:34;;;;;;;0.17;0.17;;;;;;;;;;5041294;27;92440;-77
2022/05/22 09:45:23;;;;;;;0.77;0.77;;;;;;;;;;5060083;27;92411;-77
2022/05/22 09:47:55;;;;;;;0.30;0.30;;;;;;;;;;5059496;27;95935;-78
2022/05/22 09:50:56;;;;;;;0.22;0.22;;;;;;;;;;5059559;27;92480;-77
2022/05/22 09:53:32;;;;;;;0.10;0.10;;;;;;;;;;5060548;27;93918;-78
2022/05/22 09:56:06;;;;;;;0.10;0.10;;;;;;;;;;5063078;27;93188;-79
2022/05/22 09:58:41;;;;;;;0.10;0.10;;;;;;;;;;5060170;27;92781;-77
2022/05/22 10:01:12;;;;;;;0.10;0.10;;;;;;;;;;5057134;27;97452;-79
2022/05/22 10:03:57;;;;;;;0.10;0.10;;;;;;;;;;5059269;27;93418;-78
2022/05/22 10:06:42;;;;;;;0.10;0.10;;;;;;;;;;5060118;27;92984;-78
2022/05/22 10:09:27;;;;;;;0.20;0.20;;;;;;;;;;5059620;27;94026;-76
2022/05/22 10:11:54;;;;;;;0.38;0.38;;;;;;;;;;5059648;27;92254;-77
2022/05/22 10:14:50;;;;;;;0.10;0.10;;;;;;;;;;5059779;27;92782;-76
2022/05/22 10:17:18;;;;;;;0.17;0.17;;;;;;;;;;5059511;27;93492;-76
2022/05/22 10:20:08;;;;;;;0.20;0.20;;;;;;;;;;5063007;27;91655;-76
2022/05/22 10:22:53;;;;;;;0.45;0.45;;;;;;;;;;5059674;27;93262;-73
2022/05/22 10:25:26;;;;;;;0.10;0.10;;;;;;;;;;5059891;27;92277;-75
2022/05/22 10:28:04;;;;;;;0.15;0.15;;;;;;;;;;5057856;27;94692;-75
2022/05/22 10:30:33;;;;;;;0.10;0.10;;;;;;;;;;5058822;27;93722;-75
2022/05/22 10:33:05;;;;;;;0.10;0.10;;;;;;;;;;5059134;27;92283;-74
2022/05/22 10:35:50;;;;;;;0.10;0.10;;;;;;;;;;5059084;27;94800;-76
2022/05/22 10:38:21;;;;;;;0.10;0.10;;;;;;;;;;5058946;27;92942;-75
2022/05/22 10:43:35;;;;;;;0.10;0.10;;;;;;;;;;5062223;27;93192;-75
2022/05/22 10:46:02;;;;;;;0.10;0.10;;;;;;;;;;5059623;27;91464;-75
2022/05/22 10:48:31;;;;;;;0.13;0.13;;;;;;;;;;5059050;27;92420;-75
2022/05/22 10:51:06;;;;;;;0.20;0.20;;;;;;;;;;5058822;27;93536;-75
2022/05/22 10:53:35;;;;;;;0.10;0.10;;;;;;;;;;5057092;27;94774;-75
2022/05/22 10:56:13;;;;;;;0.52;0.28;;;;;;;;;;5040914;27;95795;-74
2022/05/22 10:58:48;;;;;;;0.10;0.10;;;;;;;;;;5058717;27;93455;-75
2022/05/22 11:01:16;;;;;;;0.10;0.10;;;;;;;;;;5058946;27;92298;-75
2022/05/22 11:03:43;;;;;;;0.10;0.10;;;;;;;;;;5058461;27;93428;-74
2022/05/22 11:06:20;;;;;;;0.10;0.10;;;;;;;;;;5061725;27;93535;-75
2022/05/22 11:08:51;;;;;;;0.20;0.20;;;;;;;;;;5040857;27;93664;-75
2022/05/22 11:11:20;;;;;;;0.10;0.10;;;;;;;;;;5059022;27;92956;-76
2022/05/22 11:13:47;;;;;;;0.10;0.10;;;;;;;;;;5058617;27;92332;-74
2022/05/22 11:16:19;;;;;;;0.10;0.10;;;;;;;;;;5058477;27;93113;-75
2022/05/22 11:18:46;;;;;;;0.10;0.10;;;;;;;;;;5056918;27;95750;-75
2022/05/22 11:21:29;;;;;;;0.10;0.10;;;;;;;;;;5058518;27;92345;-75
2022/05/22 11:24:08;;;;;;;0.22;0.22;;;;;;;;;;5058845;27;93639;-75
2022/05/22 11:26:43;;;;;;;0.10;0.10;;;;;;;;;;5058121;27;93692;-75
2022/05/22 11:29:15;;;;;;;0.25;0.25;;;;;;;;;;5063528;27;92231;-75
2022/05/22 11:31:51;;;;;;;0.10;0.10;;;;;;;;;;5060088;27;93704;-75
2022/05/22 11:34:21;;;;;;;0.20;0.20;;;;;;;;;;5058507;27;92336;-76
2022/05/22 11:37:10;;;;;;;0.15;0.15;;;;;;;;;;5058722;27;95434;-75
2022/05/22 11:39:40;;;;;;;0.13;0.13;;;;;;;;;;5058697;27;93307;-75
2022/05/22 11:42:14;;;;;;;0.32;0.32;;;;;;;;;;5058462;27;92294;-75
2022/05/22 11:44:49;;;;;;;0.10;0.10;;;;;;;;;;5056883;27;94810;-76
2022/05/22 11:47:37;;;;;;;0.10;0.10;;;;;;;;;;5040322;27;93801;-76
2022/05/22 11:50:09;;;;;;;0.10;0.10;;;;;;;;;;5060848;27;92351;-75
2022/05/22 11:52:54;;;;;;;0.10;0.10;;;;;;;;;;5057696;27;94587;-75
2022/05/22 11:55:32;;;;;;;0.10;0.10;;;;;;;;;;5057947;27;92164;-76
2022/05/22 11:58:10;;;;;;;0.20;0.20;;;;;;;;;;5039622;27;94467;-76
2022/05/22 12:00:49;;;;;;;0.13;0.13;;;;;;;;;;5057952;27;93273;-75
2022/05/22 12:03:34;;;;;;;0.10;0.10;;;;;;;;;;5040679;27;91878;-75
2022/05/22 12:06:12;;;;;;;0.10;0.10;;;;;;;;;;5040321;27;92530;-76
2022/05/22 12:08:44;;;;;;;0.10;0.10;;;;;;;;;;5039658;27;95120;-76
2022/05/22 12:11:15;;;;;;;0.10;0.10;;;;;;;;;;5056304;27;94584;-75
2022/05/22 12:13:49;;;;;;;0.10;0.10;;;;;;;;;;5060888;27;95849;-75
2022/05/22 12:16:19;;;;;;;0.10;0.10;;;;;;;;;;5057597;27;92182;-75
2022/05/22 12:19:01;;;;;;;0.35;0.35;;;;;;;;;;5057499;27;93747;-75
2022/05/22 12:21:29;;;;;;;0.10;0.10;;;;;;;;;;5057562;27;93404;-75
2022/05/22 12:23:55;;;;;;;0.10;0.10;;;;;;;;;;5057657;27;92351;-75
2022/05/22 12:26:23;;;;;;;0.30;0.30;;;;;;;;;;5057837;27;93312;-78
2022/05/22 12:29:08;;;;;;;0.10;0.10;;;;;;;;;;5058423;27;92937;-76
2022/05/22 12:31:42;;;;;;;0.20;0.20;;;;;;;;;;5057381;27;92520;-74
2022/05/22 12:34:12;;;;;;;0.10;0.10;;;;;;;;;;5057730;27;93331;-75
2022/05/22 12:36:42;;;;;;;0.10;0.10;;;;;;;;;;5058829;27;96231;-76
2022/05/22 12:39:09;;;;;;;0.10;0.10;;;;;;;;;;5057436;27;95598;-75
2022/05/22 12:41:39;;;;;;;0.63;0.63;;;;;;;;;;5039216;27;94491;-75
2022/05/22 12:44:06;;;;;;;0.10;0.10;;;;;;;;;;5057364;27;92333;-75
2022/05/22 12:46:33;;;;;;;0.10;0.10;;;;;;;;;;5057143;27;93788;-76
2022/05/22 12:49:08;;;;;;;0.10;0.10;;;;;;;;;;5057394;27;93458;-75
2022/05/22 12:51:37;;;;;;;0.22;0.22;;;;;;;;;;5057432;27;92339;-76
2022/05/22 12:54:20;;;;;;;0.10;0.10;;;;;;;;;;5039945;27;93516;-75
2022/05/22 12:56:48;;;;;;;0.10;0.10;;;;;;;;;;5057070;27;93924;-76
2022/05/22 12:59:20;;;;;;;0.20;0.20;;;;;;;;;;5060531;27;92122;-75
2022/05/22 13:01:48;;;;;;;0.10;0.10;;;;;;;;;;5055163;27;97413;-75
2022/05/22 13:04:15;;;;;;;0.20;0.20;;;;;;;;;;5042312;27;92226;-75
2022/05/22 13:06:49;;;;;;;0.10;0.10;;;;;;;;;;5059754;27;93018;-74
2022/05/22 13:09:30;;;;;;;0.50;0.17;;;;;;;;;;5041593;27;94869;-76
2022/05/22 13:12:18;;;;;;;0.30;0.30;;;;;;;;;;5059832;27;92379;-76
2022/05/22 13:14:47;;;;;;;0.20;0.20;;;;;;;;;;5059707;27;93444;-75
2022/05/22 13:17:15;;;;;;;0.17;0.17;;;;;;;;;;5059066;27;93244;-76
2022/05/22 13:19:52;;;;;;;0.10;0.10;;;;;;;;;;5060125;27;91512;-75
2022/05/22 13:22:32;;;;;;;0.20;0.20;;;;;;;;;;5062725;27;92781;-75
2022/05/22 13:24:59;;;;;;;0.57;0.57;;;;;;;;;;5059733;27;92311;-75
2022/05/22 13:27:29;;;;;;;0.10;0.10;;;;;;;;;;5040540;27;94748;-75
2022/05/22 13:29:59;;;;;;;3.30;0.20;;;;;;;;;;5059121;27;93403;-75
2022/05/22 13:32:35;;;;;;;0.17;0.17;;;;;;;;;;5041931;27;92314;-76
2022/05/22 13:35:10;;;;;;;0.17;0.17;;;;;;;;;;5059405;27;93521;-75
2022/05/22 13:37:36;;;;;;;0.10;0.10;;;;;;;;;;5059316;27;95516;-77
2022/05/22 13:40:03;;;;;;;0.17;0.17;;;;;;;;;;5065447;27;92309;-76
2022/05/22 13:42:42;;;;;;;0.30;0.30;;;;;;;;;;5062229;27;93270;-76
2022/05/22 13:45:28;;;;;;;0.30;0.30;;;;;;;;;;5062842;27;92731;-76
2022/05/22 13:48:11;;;;;;;0.10;0.10;;;;;;;;;;5059399;27;93083;-74
2022/05/22 13:53:31;;;;;;;0.20;0.20;;;;;;;;;;5057383;27;94698;-76
2022/05/22 13:55:58;;;;;;;0.10;0.10;;;;;;;;;;5058885;27;96096;-75
2022/05/22 13:58:24;;;;;;;0.10;0.10;;;;;;;;;;5058949;27;93693;-75
2022/05/22 14:00:52;;;;;;;0.20;0.20;;;;;;;;;;5059033;27;92307;-75
2022/05/22 14:03:24;;;;;;;4.95;0.68;;;;;;;;;;5020136;27;1101493;-75
2022/05/22 14:05:52;;;;;;;0.10;0.10;;;;;;;;;;5062992;27;92285;-74
2022/05/22 14:08:20;;;;;;;0.68;0.68;;;;;;;;;;5060055;27;92711;-75
2022/05/22 14:10:54;;;;;;;0.10;0.10;;;;;;;;;;5060095;27;92898;-75
2022/05/22 14:13:22;;;;;;;0.10;0.10;;;;;;;;;;5059275;27;92259;-76
2022/05/22 14:15:49;;;;;;;0.10;0.10;;;;;;;;;;5059355;27;93450;-76
2022/05/22 14:18:17;;;;;;;0.10;0.10;;;;;;;;;;5057752;27;95923;-74
2022/05/22 14:20:45;;;;;;;0.13;0.13;;;;;;;;;;5059315;27;92286;-75
2022/05/22 14:23:11;;;;;;;0.20;0.20;;;;;;;;;;5059619;27;93767;-74
2022/05/22 14:25:40;;;;;;;0.25;0.25;;;;;;;;;;5059130;27;93470;-75
2022/05/22 14:28:07;;;;;;;0.15;0.15;;;;;;;;;;5062260;27;92282;-76
2022/05/22 14:30:36;;;;;;;0.10;0.10;;;;;;;;;;5059666;27;92772;-76
2022/05/22 14:33:09;;;;;;;0.20;0.20;;;;;;;;;;5059325;27;92397;-75
2022/05/22 14:35:37;;;;;;;0.17;0.17;;;;;;;;;;5059626;27;94226;-76
2022/05/22 14:38:08;;;;;;;0.10;0.10;;;;;;;;;;5059428;27;93874;-76
2022/05/22 14:40:41;;;;;;;0.10;0.10;;;;;;;;;;5041090;27;92575;-73
2022/05/22 14:43:08;;;;;;;0.10;0.10;;;;;;;;;;5057791;27;95803;-75
2022/05/22 14:45:36;;;;;;;0.22;0.22;;;;;;;;;;5059095;27;93801;-76
2022/05/22 14:48:11;;;;;;;0.43;0.43;;;;;;;;;;5059439;27;92395;-75
2022/05/22 14:50:42;;;;;;;0.20;0.20;;;;;;;;;;5062247;27;92772;-75
2022/05/22 14:53:11;;;;;;;3.70;1.45;;;;;;;;;;5058795;27;92348;-75
2022/05/22 14:55:39;;;;;;;0.10;0.10;;;;;;;;;;5059052;27;93574;-74
2022/05/22 14:58:24;;;;;;;0.20;0.20;;;;;;;;;;5058901;27;93613;-75
2022/05/22 15:00:52;;;;;;;0.10;0.10;;;;;;;;;;5041443;27;91602;-74
2022/05/22 15:03:38;;;;;;;0.10;0.10;;;;;;;;;;5058782;27;93197;-75
2022/05/22 15:06:05;;;;;;;0.10;0.10;;;;;;;;;;5058847;27;93092;-75
2022/05/22 15:08:33;;;;;;;0.10;0.10;;;;;;;;;;5039879;27;94720;-76
2022/05/22 15:11:11;;;;;;;0.15;0.10;;;;;;;;;;5058883;27;95953;-76
2022/05/22 15:13:39;;;;;;;0.38;0.38;;;;;;;;;;5061855;27;92810;-75
2022/05/22 15:16:15;;;;;;;0.63;0.47;;;;;;;;;;5058817;27;92922;-76
2022/05/22 15:21:28;;;;;;;0.20;0.20;;;;;;;;;;5058449;27;92230;-75
2022/05/22 15:26:47;;;;;;;0.10;0.10;;;;;;;;;;5058307;27;93430;-75
2022/05/22 15:29:14;;;;;;;0.25;0.25;;;;;;;;;;5058767;27;93060;-76
2022/05/22 15:31:41;;;;;;;0.15;0.15;;;;;;;;;;5058574;27;93940;-75
2022/05/22 15:34:10;;;;;;;0.10;0.10;;;;;;;;;;5056659;27;95537;-75
2022/05/22 15:36:42;;;;;;;0.10;0.10;;;;;;;;;;5061675;27;92244;-76
2022/05/22 15:39:10;;;;;;;0.17;0.17;;;;;;;;;;5058025;27;93696;-76
2022/05/22 15:41:43;;;;;;;0.20;0.20;;;;;;;;;;5058493;27;92341;-76
2022/05/22 15:44:18;;;;;;;0.20;0.20;;;;;;;;;;5058227;27;93388;-76
2022/05/22 15:46:55;;;;;;;0.10;0.10;;;;;;;;;;5061848;27;93954;-76
2022/05/22 15:52:16;;;;;;;0.10;0.10;;;;;;;;;;5058933;27;94628;-75
2022/05/22 15:54:43;;;;;;;0.10;0.10;;;;;;;;;;5058259;27;93272;-75